Terminal Aerodrome Forecast
Issued by NWS

Current Version | Previous Version | Graphics & Text | Print | Product List | Glossary On
Versions: 1 2 3 4 5 6 7 8 9 10 11 12 13 14 15 16 17 18 19 20
000
FTUS41 KILN 262006 AAA
TAFLCK
TAF AMD
KLCK 262006Z 2620/2718 25008KT 5SM -TSRA BR OVC040CB
     FM262200 35005KT P6SM BKN040
     FM270400 05004KT P6SM SKC
     FM271500 06004KT P6SM FEW050=

USA.gov is the U.S. government's official web portal to all federal, state and local government web resources and services.